Dobrodošli na spletni strani vremenske postaje Senovo. Vse informacije so informativnega značaja, saj vremenska postaja ni del državne mreže meteoroloških postaj. AKTUALNIH OBVESTIL NI.


Posebna pozornost v zvezi z vremenskimi dogajanji ni potrebna.    Posebna pozornost v zvezi z vremenskimi dogajanji ni potrebna.

Pogled proti Armezu več informacij Pogled proti Armezu


Lisca več informacij Lisca


Radar strel več informacij blitzortung!


Radar padavin več informacij rain snow radar


Obiščite še:

Template documentation
and downloads

And another site



Weather Underground, zgodovina - Tekstovno

Dnevni povzetek za Januar 8, 2018 Enote:  Obe    Angleško   Metrično
« Predhodni Dan
Naslednji Dan »
Dnevni Tedenski Mesečni Letni Po meri
  Višja: Nižja: Povprečje:
Temperatura: TemperatureC °F /  -17.8 °C 3.0 °F /  -16.1 °C 6.3 °F /  -14.3 °C
Točka rosišča: DewpointC °F /  -17.8 °C 2.4 °F /  -16.4 °C 5.8 °F /  -14.6 °C
Vlažnost: Humidity % 95 % 96 %
Hitrost vetra: WindSpeedKMH mph /  0 km/h - 0.4 mph /  0.6 km/h
Sunki vetra: WindSpeedGustKMH mph /  0 km/h - -
Veter:- - SSW
Zračni tlak: PressurehPa in /  0 hPa 1021.9 in /  34601.5 hPa -
Padavine: 0.0 in /  0 mm    
Historical Graphs
 
 
Tabelarni podarki za Januar 8, 2018
Čas Temperatura Točka rosišča Zračni tlak Veter Hitrost vetra Sunki vetra Vlažnost Intenziteta padavin (urna)
TemperatureC °F /  -17.8 °C DewpointC °F /  -17.8 °C PressurehPa in /  0 hPa Calm     Humidity % HourlyPrecipMM in /  0 mm
00:00 4.0 °F /  -15.6 °C 3.3 °F /  -15.9 °C 1022.9 in /  34635.4 hPa Calm     95 % 0.0 in /  0 mm
00:05 4.0 °F /  -15.6 °C 3.3 °F /  -15.9 °C 1022.9 in /  34635.4 hPa Calm     95 % 0.0 in /  0 mm
00:10 3.9 °F /  -15.6 °C 3.3 °F /  -15.9 °C 1022.9 in /  34635.4 hPa Calm     96 % 0.0 in /  0 mm
00:15 3.9 °F /  -15.6 °C 3.3 °F /  -15.9 °C 1022.9 in /  34635.4 hPa Calm     96 % 0.0 in /  0 mm
00:20 3.9 °F /  -15.6 °C 3.3 °F /  -15.9 °C 1022.9 in /  34635.4 hPa Calm     96 % 0.0 in /  0 mm
00:25 3.9 °F /  -15.6 °C 3.3 °F /  -15.9 °C 1022.9 in /  34635.4 hPa Calm     96 % 0.0 in /  0 mm
00:26 3.9 °F /  -15.6 °C 3.3 °F /  -15.9 °C 1022.9 in /  34635.4 hPa Calm     96 % 0.0 in /  0 mm
00:31 3.8 °F /  -15.7 °C 3.2 °F /  -16 °C 1022.9 in /  34635.4 hPa Calm     96 % 0.0 in /  0 mm
00:34 3.8 °F /  -15.7 °C 3.2 °F /  -16 °C 1022.9 in /  34635.4 hPa Calm     96 % 0.0 in /  0 mm
00:40 3.8 °F /  -15.7 °C 3.2 °F /  -16 °C 1022.9 in /  34635.4 hPa Calm     96 % 0.0 in /  0 mm
00:45 3.8 °F /  -15.7 °C 3.2 °F /  -16 °C 1021.9 in /  34601.5 hPa Calm     96 % 0.0 in /  0 mm
00:50 3.8 °F /  -15.7 °C 3.2 °F /  -16 °C 1021.9 in /  34601.5 hPa Calm     96 % 0.0 in /  0 mm
00:55 3.8 °F /  -15.7 °C 3.2 °F /  -16 °C 1021.9 in /  34601.5 hPa Calm     96 % 0.0 in /  0 mm
01:00 3.8 °F /  -15.7 °C 3.2 °F /  -16 °C 1022.9 in /  34635.4 hPa Calm     96 % 0.0 in /  0 mm
01:06 3.7 °F /  -15.7 °C 3.1 °F /  -16.1 °C 1022.9 in /  34635.4 hPa Calm     96 % 0.0 in /  0 mm
01:11 3.7 °F /  -15.7 °C 3.1 °F /  -16.1 °C 1022.9 in /  34635.4 hPa Calm     96 % 0.0 in /  0 mm
01:14 3.7 °F /  -15.7 °C 3.1 °F /  -16.1 °C 1021.9 in /  34601.5 hPa Calm     96 % 0.0 in /  0 mm
01:20 3.7 °F /  -15.7 °C 3.1 °F /  -16.1 °C 1021.9 in /  34601.5 hPa Calm     96 % 0.0 in /  0 mm
01:25 3.7 °F /  -15.7 °C 3.1 °F /  -16.1 °C 1021.9 in /  34601.5 hPa Calm     96 % 0.0 in /  0 mm
01:30 3.7 °F /  -15.7 °C 3.1 °F /  -16.1 °C 1021.9 in /  34601.5 hPa Calm     96 % 0.0 in /  0 mm
01:35 3.6 °F /  -15.8 °C 3.0 °F /  -16.1 °C 1021.9 in /  34601.5 hPa Calm     96 % 0.0 in /  0 mm
01:40 3.6 °F /  -15.8 °C 3.0 °F /  -16.1 °C 1021.9 in /  34601.5 hPa Calm     96 % 0.0 in /  0 mm
01:45 3.6 °F /  -15.8 °C 3.0 °F /  -16.1 °C 1021.9 in /  34601.5 hPa Calm     96 % 0.0 in /  0 mm
01:50 3.6 °F /  -15.8 °C 3.0 °F /  -16.1 °C 1021.9 in /  34601.5 hPa Calm     96 % 0.0 in /  0 mm
01:55 3.5 °F /  -15.8 °C 2.9 °F /  -16.2 °C 1021.9 in /  34601.5 hPa Calm     96 % 0.0 in /  0 mm
01:59 3.5 °F /  -15.8 °C 2.9 °F /  -16.2 °C 1022.9 in /  34635.4 hPa Calm     96 % 0.0 in /  0 mm
02:04 3.5 °F /  -15.8 °C 2.9 °F /  -16.2 °C 1022.9 in /  34635.4 hPa Calm     96 % 0.0 in /  0 mm
02:09 3.5 °F /  -15.8 °C 2.9 °F /  -16.2 °C 1022.9 in /  34635.4 hPa Calm     96 % 0.0 in /  0 mm
02:14 3.4 °F /  -15.9 °C 2.8 °F /  -16.2 °C 1023.9 in /  34669.3 hPa Calm     96 % 0.0 in /  0 mm
02:19 3.4 °F /  -15.9 °C 2.8 °F /  -16.2 °C 1023.9 in /  34669.3 hPa Calm     96 % 0.0 in /  0 mm
02:24 3.4 °F /  -15.9 °C 2.8 °F /  -16.2 °C 1023.9 in /  34669.3 hPa Calm     96 % 0.0 in /  0 mm
02:28 3.4 °F /  -15.9 °C 2.8 °F /  -16.2 °C 1022.9 in /  34635.4 hPa Calm     96 % 0.0 in /  0 mm
02:33 3.4 °F /  -15.9 °C 2.8 °F /  -16.2 °C 1022.9 in /  34635.4 hPa Calm     96 % 0.0 in /  0 mm
02:35 3.4 °F /  -15.9 °C 2.8 °F /  -16.2 °C 1022.9 in /  34635.4 hPa NNW 0.2 mph /  0.3 km/h 4.0 mph /  6.4 km/h 96 % 0.0 in /  0 mm
02:40 3.3 °F /  -15.9 °C 2.7 °F /  -16.3 °C 1022.9 in /  34635.4 hPa NNW 0.5 mph /  0.8 km/h 4.0 mph /  6.4 km/h 96 % 0.0 in /  0 mm
02:45 3.3 °F /  -15.9 °C 2.7 °F /  -16.3 °C 1022.9 in /  34635.4 hPa North 0.2 mph /  0.3 km/h   96 % 0.0 in /  0 mm
02:50 3.3 °F /  -15.9 °C 2.7 °F /  -16.3 °C 1022.9 in /  34635.4 hPa Calm     96 % 0.0 in /  0 mm
02:55 3.3 °F /  -15.9 °C 2.7 °F /  -16.3 °C 1022.9 in /  34635.4 hPa Calm     96 % 0.0 in /  0 mm
02:59 3.3 °F /  -15.9 °C 2.7 °F /  -16.3 °C 1022.9 in /  34635.4 hPa Calm     96 % 0.0 in /  0 mm
03:04 3.3 °F /  -15.9 °C 2.7 °F /  -16.3 °C 1022.9 in /  34635.4 hPa Calm     96 % 0.0 in /  0 mm
03:10 3.3 °F /  -15.9 °C 2.7 °F /  -16.3 °C 1022.9 in /  34635.4 hPa Calm     96 % 0.0 in /  0 mm
03:15 3.2 °F /  -16 °C 2.6 °F /  -16.3 °C 1022.9 in /  34635.4 hPa Calm     96 % 0.0 in /  0 mm
03:20 3.2 °F /  -16 °C 2.6 °F /  -16.3 °C 1022.9 in /  34635.4 hPa Calm     96 % 0.0 in /  0 mm
03:25 3.2 °F /  -16 °C 2.6 °F /  -16.3 °C 1022.9 in /  34635.4 hPa Calm     96 % 0.0 in /  0 mm
03:27 3.2 °F /  -16 °C 2.6 °F /  -16.3 °C 1022.9 in /  34635.4 hPa Calm     96 % 0.0 in /  0 mm
03:32 3.2 °F /  -16 °C 2.6 °F /  -16.3 °C 1022.9 in /  34635.4 hPa Calm     96 % 0.0 in /  0 mm
03:35 3.2 °F /  -16 °C 2.6 °F /  -16.3 °C 1022.9 in /  34635.4 hPa Calm     96 % 0.0 in /  0 mm
03:41 3.2 °F /  -16 °C 2.6 °F /  -16.3 °C 1022.9 in /  34635.4 hPa Calm     96 % 0.0 in /  0 mm
03:46 3.2 °F /  -16 °C 2.6 °F /  -16.3 °C 1022.9 in /  34635.4 hPa Calm     96 % 0.0 in /  0 mm
03:51 3.2 °F /  -16 °C 2.6 °F /  -16.3 °C 1022.9 in /  34635.4 hPa Calm     96 % 0.0 in /  0 mm
03:54 3.1 °F /  -16.1 °C 2.5 °F /  -16.4 °C 1022.9 in /  34635.4 hPa Calm     96 % 0.0 in /  0 mm
03:59 3.1 °F /  -16.1 °C 2.5 °F /  -16.4 °C 1022.9 in /  34635.4 hPa Calm     96 % 0.0 in /  0 mm
04:10 3.0 °F /  -16.1 °C 2.4 °F /  -16.4 °C 1022.9 in /  34635.4 hPa Calm     96 % 0.0 in /  0 mm
04:16 3.0 °F /  -16.1 °C 2.4 °F /  -16.4 °C 1022.9 in /  34635.4 hPa Calm     96 % 0.0 in /  0 mm
04:21 3.1 °F /  -16.1 °C 2.7 °F /  -16.3 °C 1022.9 in /  34635.4 hPa Calm   2.1 mph /  3.4 km/h 97 % 0.0 in /  0 mm
04:27 3.1 °F /  -16.1 °C 2.7 °F /  -16.3 °C 1022.9 in /  34635.4 hPa WSW 0.6 mph /  1 km/h 4.0 mph /  6.4 km/h 97 % 0.0 in /  0 mm
04:34 3.2 °F /  -16 °C 2.8 °F /  -16.2 °C 1022.9 in /  34635.4 hPa NNW 0.3 mph /  0.5 km/h 2.1 mph /  3.4 km/h 97 % 0.0 in /  0 mm
04:41 3.3 °F /  -15.9 °C 2.9 °F /  -16.2 °C 1022.9 in /  34635.4 hPa NW 0.2 mph /  0.3 km/h 1.8 mph /  2.9 km/h 97 % 0.0 in /  0 mm
04:49 3.3 °F /  -15.9 °C 2.9 °F /  -16.2 °C 1022.9 in /  34635.4 hPa Calm     97 % 0.0 in /  0 mm
05:05 3.4 °F /  -15.9 °C 2.9 °F /  -16.2 °C 1023.9 in /  34669.3 hPa Calm     97 % 0.0 in /  0 mm
05:14 3.6 °F /  -15.8 °C 3.2 °F /  -16 °C 1023.9 in /  34669.3 hPa Calm     97 % 0.0 in /  0 mm
05:19 3.6 °F /  -15.8 °C 3.2 °F /  -16 °C 1023.9 in /  34669.3 hPa Calm     97 % 0.0 in /  0 mm
05:25 3.7 °F /  -15.7 °C 3.3 °F /  -15.9 °C 1023.9 in /  34669.3 hPa Calm     97 % 0.0 in /  0 mm
05:32 3.8 °F /  -15.7 °C 3.4 °F /  -15.9 °C 1023.9 in /  34669.3 hPa Calm   1.4 mph /  2.3 km/h 97 % 0.0 in /  0 mm
05:40 3.8 °F /  -15.7 °C 3.4 °F /  -15.9 °C 1023.9 in /  34669.3 hPa Calm     97 % 0.0 in /  0 mm
05:55 3.9 °F /  -15.6 °C 3.4 °F /  -15.9 °C 1023.9 in /  34669.3 hPa Calm     97 % 0.0 in /  0 mm
06:05 3.9 °F /  -15.6 °C 3.4 °F /  -15.9 °C 1023.9 in /  34669.3 hPa Calm     97 % 0.0 in /  0 mm
06:41 3.7 °F /  -15.7 °C 3.3 °F /  -15.9 °C 1023.9 in /  34669.3 hPa Calm     97 % 0.0 in /  0 mm
07:14 3.6 °F /  -15.8 °C 3.2 °F /  -16 °C 1024.9 in /  34703.1 hPa Calm     97 % 0.0 in /  0 mm
08:11 3.7 °F /  -15.7 °C 3.4 °F /  -15.9 °C 1024.9 in /  34703.1 hPa Calm     98 % 0.0 in /  0 mm
09:17 4.4 °F /  -15.3 °C 4.1 °F /  -15.5 °C 1023.9 in /  34669.3 hPa SW 0.8 mph /  1.3 km/h 4.0 mph /  6.4 km/h 98 % 0.0 in /  0 mm
09:58 5.1 °F /  -14.9 °C 4.8 °F /  -15.1 °C 1024.9 in /  34703.1 hPa Calm     98 % 0.0 in /  0 mm
10:07 5.3 °F /  -14.8 °C 5.0 °F /  -15 °C 1024.9 in /  34703.1 hPa Calm     98 % 0.0 in /  0 mm
10:13 5.4 °F /  -14.8 °C 5.1 °F /  -14.9 °C 1024.9 in /  34703.1 hPa Calm     98 % 0.0 in /  0 mm
10:18 5.4 °F /  -14.8 °C 5.1 °F /  -14.9 °C 1024.9 in /  34703.1 hPa Calm     98 % 0.0 in /  0 mm
10:23 5.4 °F /  -14.8 °C 5.1 °F /  -14.9 °C 1024.9 in /  34703.1 hPa Calm     98 % 0.0 in /  0 mm
10:24 5.5 °F /  -14.7 °C 5.2 °F /  -14.9 °C 1024.9 in /  34703.1 hPa Calm     98 % 0.0 in /  0 mm
10:30 5.4 °F /  -14.8 °C 5.1 °F /  -14.9 °C 1024.9 in /  34703.1 hPa Calm     98 % 0.0 in /  0 mm
10:35 5.5 °F /  -14.7 °C 5.2 °F /  -14.9 °C 1024.9 in /  34703.1 hPa Calm     98 % 0.0 in /  0 mm
10:40 5.6 °F /  -14.7 °C 5.3 °F /  -14.8 °C 1024.9 in /  34703.1 hPa Calm     98 % 0.0 in /  0 mm
10:42 5.6 °F /  -14.7 °C 5.3 °F /  -14.8 °C 1024.9 in /  34703.1 hPa Calm     98 % 0.0 in /  0 mm
10:43 5.6 °F /  -14.7 °C 5.3 °F /  -14.8 °C 1023.9 in /  34669.3 hPa Calm     98 % 0.0 in /  0 mm
10:49 5.8 °F /  -14.6 °C 5.5 °F /  -14.7 °C 1023.9 in /  34669.3 hPa Calm     98 % 0.0 in /  0 mm
10:55 5.9 °F /  -14.5 °C 5.6 °F /  -14.7 °C 1023.9 in /  34669.3 hPa Calm     98 % 0.0 in /  0 mm
11:00 6.1 °F /  -14.4 °C 5.8 °F /  -14.6 °C 1023.9 in /  34669.3 hPa SSW 1.1 mph /  1.8 km/h 4.3 mph /  6.9 km/h 98 % 0.0 in /  0 mm
11:05 6.3 °F /  -14.3 °C 6.0 °F /  -14.4 °C 1023.9 in /  34669.3 hPa SSW 2.1 mph /  3.4 km/h 4.7 mph /  7.6 km/h 98 % 0.0 in /  0 mm
11:10 6.4 °F /  -14.2 °C 6.1 °F /  -14.4 °C 1023.9 in /  34669.3 hPa SSW 1.4 mph /  2.3 km/h 4.7 mph /  7.6 km/h 98 % 0.0 in /  0 mm
11:11 6.4 °F /  -14.2 °C 6.1 °F /  -14.4 °C 1023.9 in /  34669.3 hPa SSW 1.4 mph /  2.3 km/h 4.7 mph /  7.6 km/h 98 % 0.0 in /  0 mm
11:16 6.4 °F /  -14.2 °C 6.1 °F /  -14.4 °C 1023.9 in /  34669.3 hPa South 0.3 mph /  0.5 km/h 2.6 mph /  4.2 km/h 98 % 0.0 in /  0 mm
11:21 6.5 °F /  -14.2 °C 6.2 °F /  -14.3 °C 1023.9 in /  34669.3 hPa East 0.3 mph /  0.5 km/h 2.6 mph /  4.2 km/h 98 % 0.0 in /  0 mm
11:26 6.6 °F /  -14.1 °C 6.3 °F /  -14.3 °C 1023.9 in /  34669.3 hPa East 0.5 mph /  0.8 km/h 2.6 mph /  4.2 km/h 98 % 0.0 in /  0 mm
11:27 6.7 °F /  -14.1 °C 6.4 °F /  -14.2 °C 1024.9 in /  34703.1 hPa East 0.5 mph /  0.8 km/h 2.6 mph /  4.2 km/h 98 % 0.0 in /  0 mm
11:32 6.9 °F /  -13.9 °C 6.6 °F /  -14.1 °C 1024.9 in /  34703.1 hPa ESE 0.5 mph /  0.8 km/h 2.6 mph /  4.2 km/h 98 % 0.0 in /  0 mm
11:37 7.1 °F /  -13.8 °C 6.8 °F /  -14 °C 1024.9 in /  34703.1 hPa ESE 0.3 mph /  0.5 km/h 2.6 mph /  4.2 km/h 98 % 0.0 in /  0 mm
11:39 7.1 °F /  -13.8 °C 6.8 °F /  -14 °C 1024.9 in /  34703.1 hPa SE 0.2 mph /  0.3 km/h 1.8 mph /  2.9 km/h 98 % 0.0 in /  0 mm
11:45 7.3 °F /  -13.7 °C 7.0 °F /  -13.9 °C 1024.9 in /  34703.1 hPa SE 0.2 mph /  0.3 km/h 3.5 mph /  5.6 km/h 98 % 0.0 in /  0 mm
11:50 7.5 °F /  -13.6 °C 7.2 °F /  -13.8 °C 1024.9 in /  34703.1 hPa East 0.2 mph /  0.3 km/h 2.1 mph /  3.4 km/h 98 % 0.0 in /  0 mm
11:56 7.7 °F /  -13.5 °C 7.4 °F /  -13.7 °C 1024.9 in /  34703.1 hPa SE 0.5 mph /  0.8 km/h 4.0 mph /  6.4 km/h 98 % 0.0 in /  0 mm
12:01 8.0 °F /  -13.3 °C 7.7 °F /  -13.5 °C 1024.9 in /  34703.1 hPa SE 2.1 mph /  3.4 km/h 6.1 mph /  9.8 km/h 98 % 0.0 in /  0 mm
12:06 8.2 °F /  -13.2 °C 7.9 °F /  -13.4 °C 1024.9 in /  34703.1 hPa SSE 3.2 mph /  5.1 km/h 6.1 mph /  9.8 km/h 98 % 0.0 in /  0 mm
12:11 8.3 °F /  -13.2 °C 8.0 °F /  -13.3 °C 1024.9 in /  34703.1 hPa SSE 2.7 mph /  4.3 km/h 5.8 mph /  9.3 km/h 98 % 0.0 in /  0 mm
12:17 8.4 °F /  -13.1 °C 8.1 °F /  -13.3 °C 1023.9 in /  34669.3 hPa SE 1.8 mph /  2.9 km/h 4.3 mph /  6.9 km/h 98 % 0.0 in /  0 mm
12:20 8.5 °F /  -13.1 °C 8.2 °F /  -13.2 °C 1023.9 in /  34669.3 hPa SE 1.3 mph /  2.1 km/h 4.3 mph /  6.9 km/h 98 % 0.0 in /  0 mm
12:25 8.7 °F /  -12.9 °C 8.4 °F /  -13.1 °C 1023.9 in /  34669.3 hPa SE 0.3 mph /  0.5 km/h 4.0 mph /  6.4 km/h 98 % 0.0 in /  0 mm
12:27 8.9 °F /  -12.8 °C 8.6 °F /  -13 °C 1023.9 in /  34669.3 hPa SSE 0.6 mph /  1 km/h 4.0 mph /  6.4 km/h 98 % 0.0 in /  0 mm
12:32 9.2 °F /  -12.7 °C 8.9 °F /  -12.8 °C 1023.9 in /  34669.3 hPa SSE 0.6 mph /  1 km/h 4.0 mph /  6.4 km/h 98 % 0.0 in /  0 mm
12:38 9.4 °F /  -12.6 °C 9.1 °F /  -12.7 °C 1023.9 in /  34669.3 hPa Calm   1.4 mph /  2.3 km/h 98 % 0.0 in /  0 mm
12:43 9.7 °F /  -12.4 °C 9.4 °F /  -12.6 °C 1023.9 in /  34669.3 hPa South 1.1 mph /  1.8 km/h 4.0 mph /  6.4 km/h 98 % 0.0 in /  0 mm
12:46 9.9 °F /  -12.3 °C 9.6 °F /  -12.4 °C 1023.9 in /  34669.3 hPa South 1.8 mph /  2.9 km/h 4.0 mph /  6.4 km/h 98 % 0.0 in /  0 mm
12:51 10.1 °F /  -12.2 °C 9.8 °F /  -12.3 °C 1023.9 in /  34669.3 hPa SSE 1.8 mph /  2.9 km/h 4.0 mph /  6.4 km/h 98 % 0.0 in /  0 mm
12:56 10.2 °F /  -12.1 °C 9.9 °F /  -12.3 °C 1023.9 in /  34669.3 hPa ESE 0.3 mph /  0.5 km/h 3.2 mph /  5.1 km/h 98 % 0.0 in /  0 mm
12:57 10.3 °F /  -12.1 °C 10.0 °F /  -12.2 °C 1022.9 in /  34635.4 hPa ESE 0.3 mph /  0.5 km/h 3.2 mph /  5.1 km/h 98 % 0.0 in /  0 mm
13:02 10.6 °F /  -11.9 °C 10.3 °F /  -12.1 °C 1022.9 in /  34635.4 hPa South 0.2 mph /  0.3 km/h 3.5 mph /  5.6 km/h 98 % 0.0 in /  0 mm
13:08 10.7 °F /  -11.8 °C 10.4 °F /  -12 °C 1022.9 in /  34635.4 hPa South 0.5 mph /  0.8 km/h 3.5 mph /  5.6 km/h 98 % 0.0 in /  0 mm
13:13 10.7 °F /  -11.8 °C 10.4 °F /  -12 °C 1022.9 in /  34635.4 hPa SSE 0.6 mph /  1 km/h 3.2 mph /  5.1 km/h 98 % 0.0 in /  0 mm
13:18 10.8 °F /  -11.8 °C 10.5 °F /  -11.9 °C 1022.9 in /  34635.4 hPa South 1.6 mph /  2.6 km/h 4.3 mph /  6.9 km/h 98 % 0.0 in /  0 mm
13:24 10.8 °F /  -11.8 °C 10.5 °F /  -11.9 °C 1022.9 in /  34635.4 hPa South 2.4 mph /  3.9 km/h 4.3 mph /  6.9 km/h 98 % 0.0 in /  0 mm
13:29 10.9 °F /  -11.7 °C 10.6 °F /  -11.9 °C 1022.9 in /  34635.4 hPa SSE 2.4 mph /  3.9 km/h 4.7 mph /  7.6 km/h 98 % 0.0 in /  0 mm
13:31 10.9 °F /  -11.7 °C 10.6 °F /  -11.9 °C 1022.9 in /  34635.4 hPa SSE 2.4 mph /  3.9 km/h 4.7 mph /  7.6 km/h 98 % 0.0 in /  0 mm
13:41 11.0 °F /  -11.7 °C 10.6 °F /  -11.9 °C 1022.9 in /  34635.4 hPa SE 3.1 mph /  5 km/h 5.0 mph /  8 km/h 97 % 0.0 in /  0 mm
13:43 11.0 °F /  -11.7 °C 10.6 °F /  -11.9 °C 1021.9 in /  34601.5 hPa SE 3.2 mph /  5.1 km/h 5.0 mph /  8 km/h 97 % 0.0 in /  0 mm
13:49 11.0 °F /  -11.7 °C 10.6 °F /  -11.9 °C 1021.9 in /  34601.5 hPa SE 2.3 mph /  3.7 km/h 5.0 mph /  8 km/h 97 % 0.0 in /  0 mm
13:54 11.1 °F /  -11.6 °C 10.7 °F /  -11.8 °C 1021.9 in /  34601.5 hPa SE 0.3 mph /  0.5 km/h 4.0 mph /  6.4 km/h 97 % 0.0 in /  0 mm
13:57 11.1 °F /  -11.6 °C 10.7 °F /  -11.8 °C 1021.9 in /  34601.5 hPa SSE 1.0 mph /  1.6 km/h 4.7 mph /  7.6 km/h 97 % 0.0 in /  0 mm
14:02 11.1 °F /  -11.6 °C 10.7 °F /  -11.8 °C 1021.9 in /  34601.5 hPa SSE 2.6 mph /  4.2 km/h 5.8 mph /  9.3 km/h 97 % 0.0 in /  0 mm
14:08 11.3 °F /  -11.5 °C 10.8 °F /  -11.8 °C 1021.9 in /  34601.5 hPa SSE 3.4 mph /  5.5 km/h 5.8 mph /  9.3 km/h 97 % 0.0 in /  0 mm
14:12 11.4 °F /  -11.4 °C 10.9 °F /  -11.7 °C 1023.9 in /  34669.3 hPa SSE 3.1 mph /  5 km/h 5.8 mph /  9.3 km/h 97 % 0.0 in /  0 mm
14:18 11.6 °F /  -11.3 °C 11.2 °F /  -11.6 °C 1023.9 in /  34669.3 hPa SSE 1.3 mph /  2.1 km/h 5.0 mph /  8 km/h 97 % 0.0 in /  0 mm
14:23 11.7 °F /  -11.3 °C 11.2 °F /  -11.6 °C 1023.9 in /  34669.3 hPa South 0.3 mph /  0.5 km/h 3.2 mph /  5.1 km/h 97 % 0.0 in /  0 mm
14:29 11.9 °F /  -11.2 °C 11.4 °F /  -11.4 °C 1023.9 in /  34669.3 hPa South 1.3 mph /  2.1 km/h 4.7 mph /  7.6 km/h 97 % 0.0 in /  0 mm
14:34 11.9 °F /  -11.2 °C 11.4 °F /  -11.4 °C 1023.9 in /  34669.3 hPa South 1.8 mph /  2.9 km/h 4.3 mph /  6.9 km/h 97 % 0.0 in /  0 mm
14:39 12.0 °F /  -11.1 °C 11.6 °F /  -11.3 °C 1023.9 in /  34669.3 hPa SSE 1.3 mph /  2.1 km/h 4.3 mph /  6.9 km/h 97 % 0.0 in /  0 mm
14:45 12.2 °F /  -11 °C 11.7 °F /  -11.3 °C 1022.9 in /  34635.4 hPa South 1.8 mph /  2.9 km/h 5.5 mph /  8.9 km/h 97 % 0.0 in /  0 mm
14:50 12.2 °F /  -11 °C 11.7 °F /  -11.3 °C 1022.9 in /  34635.4 hPa South 2.3 mph /  3.7 km/h 5.5 mph /  8.9 km/h 97 % 0.0 in /  0 mm
14:56 12.2 °F /  -11 °C 11.7 °F /  -11.3 °C 1022.9 in /  34635.4 hPa South 2.7 mph /  4.3 km/h 6.1 mph /  9.8 km/h 97 % 0.0 in /  0 mm
15:00 12.1 °F /  -11.1 °C 11.6 °F /  -11.3 °C 1022.9 in /  34635.4 hPa South 2.3 mph /  3.7 km/h 6.1 mph /  9.8 km/h 97 % 0.0 in /  0 mm
15:06 11.7 °F /  -11.3 °C 11.2 °F /  -11.6 °C 1022.9 in /  34635.4 hPa South 0.3 mph /  0.5 km/h 2.6 mph /  4.2 km/h 97 % 0.0 in /  0 mm
15:11 11.5 °F /  -11.4 °C 10.9 °F /  -11.7 °C 1022.9 in /  34635.4 hPa WSW 0.5 mph /  0.8 km/h 4.7 mph /  7.6 km/h 96 % 0.0 in /  0 mm
15:17 11.1 °F /  -11.6 °C 10.5 °F /  -11.9 °C 1021.9 in /  34601.5 hPa West 1.6 mph /  2.6 km/h 5.0 mph /  8 km/h 96 % 0.0 in /  0 mm
15:23 10.8 °F /  -11.8 °C 10.2 °F /  -12.1 °C 1021.9 in /  34601.5 hPa WSW 0.8 mph /  1.3 km/h 4.3 mph /  6.9 km/h 96 % 0.0 in /  0 mm
15:29 10.4 °F /  -12 °C 9.8 °F /  -12.3 °C 1021.9 in /  34601.5 hPa SSW 1.4 mph /  2.3 km/h 4.3 mph /  6.9 km/h 96 % 0.0 in /  0 mm
15:35 10.0 °F /  -12.2 °C 9.2 °F /  -12.7 °C 1021.9 in /  34601.5 hPa SW 1.6 mph /  2.6 km/h 4.3 mph /  6.9 km/h 95 % 0.0 in /  0 mm
15:38 9.9 °F /  -12.3 °C 9.1 °F /  -12.7 °C 1021.9 in /  34601.5 hPa WSW 1.0 mph /  1.6 km/h 4.3 mph /  6.9 km/h 95 % 0.0 in /  0 mm
15:43 9.7 °F /  -12.4 °C 8.9 °F /  -12.8 °C 1021.9 in /  34601.5 hPa NW 2.4 mph /  3.9 km/h 5.5 mph /  8.9 km/h 95 % 0.0 in /  0 mm
15:50 9.4 °F /  -12.6 °C 8.7 °F /  -12.9 °C 1021.9 in /  34601.5 hPa NW 1.3 mph /  2.1 km/h 5.5 mph /  8.9 km/h 95 % 0.0 in /  0 mm
15:55 9.3 °F /  -12.6 °C 8.6 °F /  -13 °C 1021.9 in /  34601.5 hPa West 0.5 mph /  0.8 km/h 4.3 mph /  6.9 km/h 95 % 0.0 in /  0 mm
15:58 9.2 °F /  -12.7 °C 8.4 °F /  -13.1 °C 1021.9 in /  34601.5 hPa West 0.8 mph /  1.3 km/h 4.3 mph /  6.9 km/h 95 % 0.0 in /  0 mm
16:04 8.9 °F /  -12.8 °C 8.2 °F /  -13.2 °C 1021.9 in /  34601.5 hPa WNW 1.0 mph /  1.6 km/h 5.0 mph /  8 km/h 95 % 0.0 in /  0 mm
16:14 8.6 °F /  -13 °C 7.8 °F /  -13.4 °C 1022.9 in /  34635.4 hPa WNW 2.6 mph /  4.2 km/h 6.1 mph /  9.8 km/h 95 % 0.0 in /  0 mm
16:19 8.4 °F /  -13.1 °C 7.7 °F /  -13.5 °C 1022.9 in /  34635.4 hPa NW 0.8 mph /  1.3 km/h 4.0 mph /  6.4 km/h 95 % 0.0 in /  0 mm
16:25 8.2 °F /  -13.2 °C 7.4 °F /  -13.7 °C 1022.9 in /  34635.4 hPa NW 0.5 mph /  0.8 km/h 4.0 mph /  6.4 km/h 95 % 0.0 in /  0 mm
16:31 7.9 °F /  -13.4 °C 7.2 °F /  -13.8 °C 1023.9 in /  34669.3 hPa Calm     95 % 0.0 in /  0 mm
16:37 7.7 °F /  -13.5 °C 6.9 °F /  -13.9 °C 1023.9 in /  34669.3 hPa Calm     95 % 0.0 in /  0 mm
16:43 7.5 °F /  -13.6 °C 6.8 °F /  -14 °C 1023.9 in /  34669.3 hPa Calm     95 % 0.0 in /  0 mm
16:48 7.4 °F /  -13.7 °C 6.7 °F /  -14.1 °C 1023.9 in /  34669.3 hPa Calm     95 % 0.0 in /  0 mm
16:50 7.4 °F /  -13.7 °C 6.7 °F /  -14.1 °C 1023.9 in /  34669.3 hPa Calm     95 % 0.0 in /  0 mm
16:55 7.2 °F /  -13.8 °C 6.4 °F /  -14.2 °C 1023.9 in /  34669.3 hPa Calm     95 % 0.0 in /  0 mm
16:57 7.1 °F /  -13.8 °C 6.3 °F /  -14.3 °C 1023.9 in /  34669.3 hPa Calm     95 % 0.0 in /  0 mm
17:03 7.0 °F /  -13.9 °C 6.3 °F /  -14.3 °C 1023.9 in /  34669.3 hPa Calm     95 % 0.0 in /  0 mm
17:09 6.7 °F /  -14.1 °C 5.9 °F /  -14.5 °C 1023.9 in /  34669.3 hPa Calm     95 % 0.0 in /  0 mm
17:15 6.5 °F /  -14.2 °C 5.8 °F /  -14.6 °C 1023.9 in /  34669.3 hPa Calm     95 % 0.0 in /  0 mm
17:23 6.2 °F /  -14.3 °C 5.4 °F /  -14.8 °C 1023.9 in /  34669.3 hPa Calm     95 % 0.0 in /  0 mm
17:29 6.1 °F /  -14.4 °C 5.3 °F /  -14.8 °C 1023.9 in /  34669.3 hPa NW 0.3 mph /  0.5 km/h 3.2 mph /  5.1 km/h 95 % 0.0 in /  0 mm
17:33 6.1 °F /  -14.4 °C 5.3 °F /  -14.8 °C 1023.9 in /  34669.3 hPa NW 0.3 mph /  0.5 km/h 3.2 mph /  5.1 km/h 95 % 0.0 in /  0 mm
17:36 6.0 °F /  -14.4 °C 5.3 °F /  -14.8 °C 1023.9 in /  34669.3 hPa Calm     95 % 0.0 in /  0 mm
17:37 6.0 °F /  -14.4 °C 5.3 °F /  -14.8 °C 1023.9 in /  34669.3 hPa Calm     95 % 0.0 in /  0 mm
17:43 5.8 °F /  -14.6 °C 5.1 °F /  -14.9 °C 1023.9 in /  34669.3 hPa Calm     95 % 0.0 in /  0 mm
17:44 5.8 °F /  -14.6 °C 5.1 °F /  -14.9 °C 1023.9 in /  34669.3 hPa Calm     95 % 0.0 in /  0 mm
17:47 5.8 °F /  -14.6 °C 5.1 °F /  -14.9 °C 1023.9 in /  34669.3 hPa NW 0.2 mph /  0.3 km/h 4.0 mph /  6.4 km/h 95 % 0.0 in /  0 mm
17:53 5.7 °F /  -14.6 °C 4.9 °F /  -15.1 °C 1023.9 in /  34669.3 hPa NW 0.6 mph /  1 km/h 4.0 mph /  6.4 km/h 95 % 0.0 in /  0 mm
18:00 5.7 °F /  -14.6 °C 4.9 °F /  -15.1 °C 1023.9 in /  34669.3 hPa Calm     95 % 0.0 in /  0 mm
18:05 5.8 °F /  -14.6 °C 5.1 °F /  -14.9 °C 1023.9 in /  34669.3 hPa Calm     95 % 0.0 in /  0 mm
18:11 5.8 °F /  -14.6 °C 5.1 °F /  -14.9 °C 1023.9 in /  34669.3 hPa Calm     95 % 0.0 in /  0 mm
18:16 5.9 °F /  -14.5 °C 5.3 °F /  -14.8 °C 1023.9 in /  34669.3 hPa Calm     96 % 0.0 in /  0 mm
18:21 5.9 °F /  -14.5 °C 5.3 °F /  -14.8 °C 1023.9 in /  34669.3 hPa Calm     96 % 0.0 in /  0 mm
18:26 6.0 °F /  -14.4 °C 5.3 °F /  -14.8 °C 1023.9 in /  34669.3 hPa Calm     95 % 0.0 in /  0 mm
18:31 6.1 °F /  -14.4 °C 5.5 °F /  -14.7 °C 1023.9 in /  34669.3 hPa Calm     96 % 0.0 in /  0 mm
18:34 6.1 °F /  -14.4 °C 5.5 °F /  -14.7 °C 1023.9 in /  34669.3 hPa Calm     96 % 0.0 in /  0 mm
18:40 6.2 °F /  -14.3 °C 5.6 °F /  -14.7 °C 1023.9 in /  34669.3 hPa Calm     96 % 0.0 in /  0 mm
18:45 6.3 °F /  -14.3 °C 5.7 °F /  -14.6 °C 1024.9 in /  34703.1 hPa West 0.5 mph /  0.8 km/h 4.0 mph /  6.4 km/h 96 % 0.0 in /  0 mm
18:50 6.4 °F /  -14.2 °C 5.8 °F /  -14.6 °C 1024.9 in /  34703.1 hPa West 0.5 mph /  0.8 km/h 4.0 mph /  6.4 km/h 96 % 0.0 in /  0 mm
18:54 6.5 °F /  -14.2 °C 5.9 °F /  -14.5 °C 1024.9 in /  34703.1 hPa Calm     96 % 0.0 in /  0 mm
18:55 6.5 °F /  -14.2 °C 5.9 °F /  -14.5 °C 1024.9 in /  34703.1 hPa Calm     96 % 0.0 in /  0 mm
19:00 6.5 °F /  -14.2 °C 5.9 °F /  -14.5 °C 1023.9 in /  34669.3 hPa Calm     96 % 0.0 in /  0 mm
19:05 6.6 °F /  -14.1 °C 6.0 °F /  -14.4 °C 1023.9 in /  34669.3 hPa Calm     96 % 0.0 in /  0 mm
19:10 6.6 °F /  -14.1 °C 6.0 °F /  -14.4 °C 1023.9 in /  34669.3 hPa Calm     96 % 0.0 in /  0 mm
19:13 6.6 °F /  -14.1 °C 6.0 °F /  -14.4 °C 1023.9 in /  34669.3 hPa Calm     96 % 0.0 in /  0 mm
19:18 6.8 °F /  -14 °C 6.2 °F /  -14.3 °C 1023.9 in /  34669.3 hPa Calm     96 % 0.0 in /  0 mm
19:20 6.8 °F /  -14 °C 6.2 °F /  -14.3 °C 1023.9 in /  34669.3 hPa Calm     96 % 0.0 in /  0 mm
19:25 6.9 °F /  -13.9 °C 6.3 °F /  -14.3 °C 1023.9 in /  34669.3 hPa West 0.3 mph /  0.5 km/h 3.5 mph /  5.6 km/h 96 % 0.0 in /  0 mm
19:30 6.8 °F /  -14 °C 6.3 °F /  -14.3 °C 1024.9 in /  34703.1 hPa West 0.3 mph /  0.5 km/h 3.5 mph /  5.6 km/h 97 % 0.0 in /  0 mm
19:32 6.8 °F /  -14 °C 6.3 °F /  -14.3 °C 1024.9 in /  34703.1 hPa North 0.2 mph /  0.3 km/h   97 % 0.0 in /  0 mm
19:37 6.9 °F /  -13.9 °C 6.4 °F /  -14.2 °C 1024.9 in /  34703.1 hPa Calm     97 % 0.0 in /  0 mm
19:42 6.9 °F /  -13.9 °C 6.4 °F /  -14.2 °C 1024.9 in /  34703.1 hPa Calm     97 % 0.0 in /  0 mm
19:47 7.0 °F /  -13.9 °C 6.4 °F /  -14.2 °C 1024.9 in /  34703.1 hPa Calm     96 % 0.0 in /  0 mm
19:50 7.0 °F /  -13.9 °C 6.4 °F /  -14.2 °C 1024.9 in /  34703.1 hPa Calm     96 % 0.0 in /  0 mm
19:56 7.0 °F /  -13.9 °C 6.4 °F /  -14.2 °C 1024.9 in /  34703.1 hPa Calm     96 % 0.0 in /  0 mm
20:01 6.9 °F /  -13.9 °C 6.4 °F /  -14.2 °C 1024.9 in /  34703.1 hPa Calm     97 % 0.0 in /  0 mm
20:06 7.0 °F /  -13.9 °C 6.4 °F /  -14.2 °C 1024.9 in /  34703.1 hPa Calm     96 % 0.0 in /  0 mm
20:08 7.0 °F /  -13.9 °C 6.4 °F /  -14.2 °C 1024.9 in /  34703.1 hPa Calm     96 % 0.0 in /  0 mm
20:11 6.9 °F /  -13.9 °C 6.4 °F /  -14.2 °C 1024.9 in /  34703.1 hPa Calm     97 % 0.0 in /  0 mm
20:16 6.9 °F /  -13.9 °C 6.4 °F /  -14.2 °C 1024.9 in /  34703.1 hPa Calm     97 % 0.0 in /  0 mm
20:18 6.9 °F /  -13.9 °C 6.4 °F /  -14.2 °C 1024.9 in /  34703.1 hPa Calm     97 % 0.0 in /  0 mm
20:20 6.8 °F /  -14 °C 6.3 °F /  -14.3 °C 1024.9 in /  34703.1 hPa Calm     97 % 0.0 in /  0 mm
20:25 6.8 °F /  -14 °C 6.3 °F /  -14.3 °C 1024.9 in /  34703.1 hPa Calm     97 % 0.0 in /  0 mm
20:30 6.8 °F /  -14 °C 6.3 °F /  -14.3 °C 1024.9 in /  34703.1 hPa Calm     97 % 0.0 in /  0 mm
20:35 6.8 °F /  -14 °C 6.3 °F /  -14.3 °C 1024.9 in /  34703.1 hPa Calm     97 % 0.0 in /  0 mm
20:39 6.8 °F /  -14 °C 6.3 °F /  -14.3 °C 1024.9 in /  34703.1 hPa Calm     97 % 0.0 in /  0 mm
20:44 6.7 °F /  -14.1 °C 6.3 °F /  -14.3 °C 1024.9 in /  34703.1 hPa Calm     97 % 0.0 in /  0 mm
20:46 6.7 °F /  -14.1 °C 6.3 °F /  -14.3 °C 1024.9 in /  34703.1 hPa Calm     97 % 0.0 in /  0 mm
20:51 6.7 °F /  -14.1 °C 6.3 °F /  -14.3 °C 1024.9 in /  34703.1 hPa Calm     97 % 0.0 in /  0 mm
20:56 6.7 °F /  -14.1 °C 6.3 °F /  -14.3 °C 1024.9 in /  34703.1 hPa Calm     97 % 0.0 in /  0 mm
21:01 6.7 °F /  -14.1 °C 6.3 °F /  -14.3 °C 1024.9 in /  34703.1 hPa Calm     97 % 0.0 in /  0 mm
21:07 6.7 °F /  -14.1 °C 6.3 °F /  -14.3 °C 1024.9 in /  34703.1 hPa Calm     97 % 0.0 in /  0 mm
21:13 6.7 °F /  -14.1 °C 6.3 °F /  -14.3 °C 1024.9 in /  34703.1 hPa Calm     97 % 0.0 in /  0 mm
21:19 6.6 °F /  -14.1 °C 6.2 °F /  -14.3 °C 1024.9 in /  34703.1 hPa Calm     97 % 0.0 in /  0 mm
21:27 6.7 °F /  -14.1 °C 6.3 °F /  -14.3 °C 1024.9 in /  34703.1 hPa Calm     97 % 0.0 in /  0 mm
21:38 6.6 °F /  -14.1 °C 6.2 °F /  -14.3 °C 1024.9 in /  34703.1 hPa Calm     97 % 0.0 in /  0 mm
21:50 6.5 °F /  -14.2 °C 6.1 °F /  -14.4 °C 1024.9 in /  34703.1 hPa Calm     97 % 0.0 in /  0 mm
22:03 6.5 °F /  -14.2 °C 6.1 °F /  -14.4 °C 1024.9 in /  34703.1 hPa Calm     97 % 0.0 in /  0 mm
22:12 6.4 °F /  -14.2 °C 5.9 °F /  -14.5 °C 1024.9 in /  34703.1 hPa Calm     97 % 0.0 in /  0 mm
22:19 6.4 °F /  -14.2 °C 5.9 °F /  -14.5 °C 1024.9 in /  34703.1 hPa Calm     97 % 0.0 in /  0 mm
22:24 6.3 °F /  -14.3 °C 5.8 °F /  -14.6 °C 1024.9 in /  34703.1 hPa Calm     97 % 0.0 in /  0 mm
22:29 6.3 °F /  -14.3 °C 5.8 °F /  -14.6 °C 1024.9 in /  34703.1 hPa Calm     97 % 0.0 in /  0 mm
22:37 6.2 °F /  -14.3 °C 5.8 °F /  -14.6 °C 1024.9 in /  34703.1 hPa Calm     97 % 0.0 in /  0 mm
22:43 6.1 °F /  -14.4 °C 5.7 °F /  -14.6 °C 1024.9 in /  34703.1 hPa Calm   2.1 mph /  3.4 km/h 97 % 0.0 in /  0 mm
22:48 6.0 °F /  -14.4 °C 5.6 °F /  -14.7 °C 1024.9 in /  34703.1 hPa Calm   2.1 mph /  3.4 km/h 97 % 0.0 in /  0 mm
22:53 5.8 °F /  -14.6 °C 5.3 °F /  -14.8 °C 1024.9 in /  34703.1 hPa Calm     97 % 0.0 in /  0 mm
22:59 5.7 °F /  -14.6 °C 5.3 °F /  -14.8 °C 1024.9 in /  34703.1 hPa Calm     97 % 0.0 in /  0 mm
23:05 5.6 °F /  -14.7 °C 5.2 °F /  -14.9 °C 1024.9 in /  34703.1 hPa Calm     97 % 0.0 in /  0 mm
23:10 5.5 °F /  -14.7 °C 5.1 °F /  -14.9 °C 1024.9 in /  34703.1 hPa Calm     97 % 0.0 in /  0 mm
23:16 5.4 °F /  -14.8 °C 4.9 °F /  -15.1 °C 1024.9 in /  34703.1 hPa Calm     97 % 0.0 in /  0 mm
23:24 5.3 °F /  -14.8 °C 4.9 °F /  -15.1 °C 1024.9 in /  34703.1 hPa Calm     97 % 0.0 in /  0 mm
23:25 5.2 °F /  -14.9 °C 4.8 °F /  -15.1 °C 1024.9 in /  34703.1 hPa Calm     97 % 0.0 in /  0 mm
23:30 5.2 °F /  -14.9 °C 4.8 °F /  -15.1 °C 1024.9 in /  34703.1 hPa Calm     97 % 0.0 in /  0 mm
23:35 5.2 °F /  -14.9 °C 4.8 °F /  -15.1 °C 1024.9 in /  34703.1 hPa Calm     97 % 0.0 in /  0 mm
23:37 5.2 °F /  -14.9 °C 4.8 °F /  -15.1 °C 1024.9 in /  34703.1 hPa Calm     97 % 0.0 in /  0 mm
23:42 5.3 °F /  -14.8 °C 4.9 °F /  -15.1 °C 1024.9 in /  34703.1 hPa Calm     97 % 0.0 in /  0 mm
23:48 5.3 °F /  -14.8 °C 4.9 °F /  -15.1 °C 1024.9 in /  34703.1 hPa Calm     97 % 0.0 in /  0 mm
23:49 5.3 °F /  -14.8 °C 4.9 °F /  -15.1 °C 1024.9 in /  34703.1 hPa Calm     97 % 0.0 in /  0 mm
23:53 5.3 °F /  -14.8 °C 4.9 °F /  -15.1 °C 1024.9 in /  34703.1 hPa Calm     97 % 0.0 in /  0 mm
23:54 5.3 °F /  -14.8 °C 4.9 °F /  -15.1 °C 1024.9 in /  34703.1 hPa Calm     97 % 0.0 in /  0 mm
23:55 5.3 °F /  -14.8 °C 4.9 °F /  -15.1 °C 1024.9 in /  34703.1 hPa Calm     97 % 0.0 in /  0 mm
23:56 5.3 °F /  -14.8 °C 4.9 °F /  -15.1 °C 1024.9 in /  34703.1 hPa Calm     97 % 0.0 in /  0 mm
23:57 5.3 °F /  -14.8 °C 4.9 °F /  -15.1 °C 1024.9 in /  34703.1 hPa Calm     97 % 0.0 in /  0 mm
23:58 5.3 °F /  -14.8 °C 4.9 °F /  -15.1 °C 1024.9 in /  34703.1 hPa Calm     97 % 0.0 in /  0 mm
Vremenska postaja Senovo
Podatki zbrani iz Weather Underground - 2.75 mb

Script developed by  Jim McMurry - jmcmurry@mwt.net Adapted for the template by  Wim van der Kuil - Leuven-Template.eu

Vremenski podatki so objavljeni na:

European Weather Network

WeatherCloud

Weather Underground

AWEKAS

HAMweather, WeatherForYou, PWS Weather

MapView

Geostik

Slovenia weather network

Oprema, ki se uporablja:

Vremenski program
Cumulus

Vremenski server
Asus

Cumulus

Asus